createdAt,value
2019-03-26T00:00:47.238Z,4.42
2019-03-26T00:01:47.215Z,4.47
2019-03-26T00:02:47.194Z,4.47
2019-03-26T00:03:47.175Z,4.52
2019-03-26T00:04:47.149Z,4.52
2019-03-26T00:05:47.127Z,4.51
2019-03-26T00:06:47.098Z,4.51
2019-03-26T00:07:47.077Z,4.50
2019-03-26T00:08:47.055Z,4.50
2019-03-26T00:09:47.034Z,4.50
2019-03-26T00:10:47.009Z,4.51
2019-03-26T00:11:46.996Z,4.47
2019-03-26T00:12:46.971Z,4.63
2019-03-26T00:13:46.945Z,4.47
2019-03-26T00:14:46.923Z,4.55
2019-03-26T00:15:46.904Z,4.52
2019-03-26T00:16:46.878Z,4.45
2019-03-26T00:17:46.858Z,4.45
2019-03-26T00:18:46.829Z,4.45
2019-03-26T00:19:46.807Z,4.27
2019-03-26T00:20:46.787Z,4.27
2019-03-26T00:21:46.765Z,4.41
2019-03-26T00:22:46.743Z,4.37
2019-03-26T00:23:46.718Z,4.44
2019-03-26T00:24:46.699Z,4.41
2019-03-26T00:25:46.675Z,4.45
2019-03-26T00:26:46.655Z,4.40
2019-03-26T00:27:46.633Z,4.50
2019-03-26T00:28:46.606Z,4.40
2019-03-26T00:29:46.581Z,4.37
2019-03-26T00:30:46.565Z,4.36
2019-03-26T00:31:46.539Z,4.41
2019-03-26T00:32:46.519Z,4.44
2019-03-26T00:33:46.499Z,4.44
2019-03-26T00:34:46.475Z,4.36
2019-03-26T00:35:46.452Z,4.41
2019-03-26T00:36:46.425Z,4.41
2019-03-26T00:37:46.402Z,4.41
2019-03-26T00:38:46.451Z,4.37
2019-03-26T00:39:46.361Z,4.32
2019-03-26T00:40:46.337Z,4.42
2019-03-26T00:41:46.314Z,4.44
2019-03-26T00:42:46.289Z,4.41
2019-03-26T00:43:46.272Z,4.48
2019-03-26T00:44:46.251Z,4.47
2019-03-26T00:45:46.225Z,4.47
2019-03-26T00:46:46.219Z,4.42
2019-03-26T00:47:46.177Z,4.47
2019-03-26T00:48:46.156Z,4.47
2019-03-26T00:49:46.135Z,4.42
2019-03-26T00:50:46.114Z,4.27
2019-03-26T00:51:46.090Z,4.32
2019-03-26T00:52:46.156Z,4.34
2019-03-26T00:53:46.046Z,4.32
2019-03-26T00:54:46.028Z,4.29
2019-03-26T00:55:45.997Z,4.33
2019-03-26T00:56:45.976Z,4.29
2019-03-26T00:57:45.954Z,4.14
2019-03-26T00:58:45.982Z,4.14
2019-03-26T00:59:45.906Z,4.22
2019-03-26T01:00:45.888Z,4.15
2019-03-26T01:01:45.864Z,4.15
2019-03-26T01:02:45.840Z,4.14
2019-03-26T01:03:45.816Z,4.18
2019-03-26T01:04:45.796Z,4.16
2019-03-26T01:05:45.774Z,4.20
2019-03-26T01:06:45.752Z,4.12
2019-03-26T01:07:45.726Z,4.09
2019-03-26T01:08:45.707Z,4.09
2019-03-26T01:09:45.683Z,4.05
2019-03-26T01:10:45.661Z,4.12
2019-03-26T01:11:45.638Z,4.09
2019-03-26T01:12:45.618Z,4.16
2019-03-26T01:13:45.596Z,4.08
2019-03-26T01:14:45.570Z,4.08
2019-03-26T01:15:45.555Z,4.16
2019-03-26T01:16:45.530Z,4.23
2019-03-26T01:17:45.504Z,4.20
2019-03-26T01:18:45.480Z,4.32
2019-03-26T01:19:45.458Z,4.30
2019-03-26T01:20:45.440Z,4.32
2019-03-26T01:21:45.412Z,4.23
2019-03-26T01:22:45.394Z,4.18
2019-03-26T01:23:45.368Z,4.20
2019-03-26T01:24:45.348Z,4.20
2019-03-26T01:25:45.322Z,4.12
2019-03-26T01:26:45.298Z,4.05
2019-03-26T01:27:45.278Z,4.11
2019-03-26T01:28:45.252Z,4.12
2019-03-26T01:29:45.230Z,4.08
2019-03-26T01:30:45.208Z,4.11
2019-03-26T01:31:45.186Z,4.09
2019-03-26T01:32:45.165Z,4.09
2019-03-26T01:33:45.149Z,4.18
2019-03-26T01:34:46.121Z,4.20
2019-03-26T01:35:45.096Z,4.18
2019-03-26T01:36:45.075Z,4.11
2019-03-26T01:37:45.051Z,4.08
2019-03-26T01:38:45.030Z,4.05
2019-03-26T01:39:45.005Z,4.09
2019-03-26T01:40:44.989Z,4.06
2019-03-26T01:41:44.962Z,4.06
2019-03-26T01:42:44.946Z,4.08
2019-03-26T01:43:44.913Z,3.93
2019-03-26T01:44:44.893Z,3.93
2019-03-26T01:45:44.872Z,3.83
2019-03-26T01:46:44.847Z,3.87
2019-03-26T01:47:44.826Z,3.94
2019-03-26T01:48:44.802Z,3.78
2019-03-26T01:49:44.779Z,3.83
2019-03-26T01:50:44.758Z,3.90
2019-03-26T01:51:44.733Z,3.76
2019-03-26T01:52:44.723Z,3.80
2019-03-26T01:53:44.685Z,3.80
2019-03-26T01:54:44.663Z,3.84
2019-03-26T01:55:44.643Z,3.79
2019-03-26T01:56:44.622Z,3.88
2019-03-26T01:57:44.600Z,3.86
2019-03-26T01:58:44.577Z,3.75
2019-03-26T01:59:44.553Z,3.91
2019-03-26T02:00:44.529Z,3.80
2019-03-26T02:01:44.510Z,3.93
2019-03-26T02:02:44.502Z,3.90
2019-03-26T02:03:44.464Z,3.86
2019-03-26T02:04:44.446Z,3.84
2019-03-26T02:05:44.421Z,3.86
2019-03-26T02:06:44.396Z,3.88
2019-03-26T02:07:44.376Z,3.76
2019-03-26T02:08:44.349Z,3.90
2019-03-26T02:09:44.332Z,3.90
2019-03-26T02:10:44.307Z,3.86
2019-03-26T02:11:44.286Z,3.86
2019-03-26T02:12:44.263Z,3.79
2019-03-26T02:13:44.238Z,3.84
2019-03-26T02:14:44.220Z,3.79
2019-03-26T02:15:44.195Z,3.78
2019-03-26T02:16:44.173Z,3.80
2019-03-26T02:17:44.151Z,3.68
2019-03-26T02:18:44.124Z,3.72
2019-03-26T02:19:44.099Z,3.76
2019-03-26T02:20:44.076Z,3.65
2019-03-26T02:21:44.056Z,3.75
2019-03-26T02:22:44.039Z,3.68
2019-03-26T02:23:44.014Z,3.66
2019-03-26T02:24:43.990Z,3.68
2019-03-26T02:25:43.966Z,3.65
2019-03-26T02:26:43.937Z,3.65
2019-03-26T02:27:43.917Z,3.61
2019-03-26T02:28:43.901Z,3.66
2019-03-26T02:29:43.877Z,3.72
2019-03-26T02:30:43.862Z,3.72
2019-03-26T02:31:43.836Z,3.61
2019-03-26T02:32:43.804Z,3.73
2019-03-26T02:33:43.783Z,3.75
2019-03-26T02:34:43.764Z,3.60
2019-03-26T02:35:43.740Z,3.68
2019-03-26T02:36:43.719Z,3.62
2019-03-26T02:37:43.696Z,3.73
2019-03-26T02:38:43.681Z,3.70
2019-03-26T02:39:43.648Z,3.65
2019-03-26T02:40:43.622Z,3.76
2019-03-26T02:41:43.600Z,3.78
2019-03-26T02:42:43.587Z,3.78
2019-03-26T02:43:43.558Z,3.73
2019-03-26T02:44:43.538Z,3.79
2019-03-26T02:45:43.510Z,3.69
2019-03-26T02:46:43.497Z,3.68
2019-03-26T02:47:43.470Z,3.66
2019-03-26T02:48:43.449Z,3.68
2019-03-26T02:49:43.422Z,3.69
2019-03-26T02:50:43.397Z,3.66
2019-03-26T02:51:43.377Z,3.58
2019-03-26T02:52:43.350Z,3.55
2019-03-26T02:53:43.333Z,3.57
2019-03-26T02:54:43.306Z,3.55
2019-03-26T02:55:43.283Z,3.54
2019-03-26T02:56:43.266Z,3.62
2019-03-26T02:57:43.251Z,3.61
2019-03-26T02:58:43.215Z,3.66
2019-03-26T02:59:43.188Z,3.76
2019-03-26T03:00:43.170Z,3.75
2019-03-26T03:01:43.145Z,3.76
2019-03-26T03:02:43.129Z,3.79
2019-03-26T03:03:43.111Z,3.83
2019-03-26T03:04:43.080Z,3.80
2019-03-26T03:05:43.061Z,3.79
2019-03-26T03:06:43.041Z,3.87
2019-03-26T03:07:43.010Z,3.76
2019-03-26T03:08:42.987Z,3.93
2019-03-26T03:09:42.966Z,3.97
2019-03-26T03:10:42.952Z,4.02
2019-03-26T03:11:42.919Z,4.05
2019-03-26T03:12:42.903Z,4.06
2019-03-26T03:13:42.876Z,4.05
2019-03-26T03:14:42.849Z,4.05
2019-03-26T03:15:42.831Z,4.20
2019-03-26T03:16:42.804Z,4.18
2019-03-26T03:17:42.782Z,4.26
2019-03-26T03:18:42.758Z,4.29
2019-03-26T03:19:42.737Z,4.24
2019-03-26T03:20:42.729Z,4.24
2019-03-26T03:21:42.690Z,4.14
2019-03-26T03:22:42.673Z,4.15
2019-03-26T03:23:42.647Z,4.24
2019-03-26T03:24:42.625Z,4.18
2019-03-26T03:25:42.597Z,4.18
2019-03-26T03:26:42.577Z,4.16
2019-03-26T03:27:42.557Z,4.12
2019-03-26T03:28:42.534Z,4.18
2019-03-26T03:29:42.506Z,4.23
2019-03-26T03:30:42.490Z,4.14
2019-03-26T03:31:42.468Z,4.30
2019-03-26T03:32:42.445Z,4.37
2019-03-26T03:33:42.421Z,4.27
2019-03-26T03:34:42.399Z,4.30
2019-03-26T03:35:52.003Z,4.29
2019-03-26T03:36:42.354Z,4.33
2019-03-26T03:37:42.337Z,4.33
2019-03-26T03:38:42.307Z,4.36
2019-03-26T03:39:42.287Z,4.27
2019-03-26T03:40:42.266Z,4.33
2019-03-26T03:41:42.237Z,4.32
2019-03-26T03:42:42.234Z,4.24
2019-03-26T03:43:42.191Z,4.37
2019-03-26T03:44:42.175Z,4.29
2019-03-26T03:45:42.149Z,4.33
2019-03-26T03:46:42.123Z,4.32
2019-03-26T03:47:42.100Z,4.32
2019-03-26T03:48:42.083Z,4.32
2019-03-26T03:49:42.054Z,4.32
2019-03-26T03:50:42.033Z,4.20
2019-03-26T03:51:42.021Z,4.15
2019-03-26T03:52:41.989Z,4.18
2019-03-26T03:53:41.966Z,4.15
2019-03-26T03:54:41.939Z,4.12
2019-03-26T03:55:41.919Z,4.08
2019-03-26T03:56:41.895Z,4.09
2019-03-26T03:57:41.885Z,4.06
2019-03-26T03:58:41.848Z,4.08
2019-03-26T03:59:41.826Z,4.05
2019-03-26T04:00:41.812Z,4.02
2019-03-26T04:01:41.781Z,4.02
2019-03-26T04:02:41.764Z,3.98
2019-03-26T04:03:41.740Z,4.05
2019-03-26T04:04:41.720Z,4.08
2019-03-26T04:05:41.694Z,3.98
2019-03-26T04:06:41.672Z,4.00
2019-03-26T04:07:41.656Z,4.02
2019-03-26T04:08:41.623Z,3.97
2019-03-26T04:09:41.604Z,4.00
2019-03-26T04:10:41.587Z,3.94
2019-03-26T04:11:41.557Z,3.90
2019-03-26T04:12:41.535Z,3.97
2019-03-26T04:13:41.511Z,3.98
2019-03-26T04:14:41.488Z,3.96
2019-03-26T04:15:41.472Z,4.02
2019-03-26T04:16:41.444Z,4.00
2019-03-26T04:17:41.422Z,4.05
2019-03-26T04:18:41.397Z,4.00
2019-03-26T04:19:41.376Z,3.96
2019-03-26T04:20:41.351Z,3.96
2019-03-26T04:21:41.331Z,3.94
2019-03-26T04:22:41.308Z,3.87
2019-03-26T04:23:41.288Z,3.88
2019-03-26T04:24:41.263Z,3.78
2019-03-26T04:25:41.246Z,3.80
2019-03-26T04:26:41.219Z,3.84
2019-03-26T04:27:41.192Z,3.86
2019-03-26T04:28:41.169Z,3.93
2019-03-26T04:29:41.147Z,3.88
2019-03-26T04:30:41.122Z,3.79
2019-03-26T04:31:41.102Z,3.90
2019-03-26T04:32:41.084Z,3.83
2019-03-26T04:33:41.056Z,3.84
2019-03-26T04:34:41.036Z,3.83
2019-03-26T04:35:41.105Z,3.73
2019-03-26T04:36:40.986Z,3.72
2019-03-26T04:37:40.970Z,3.73
2019-03-26T04:38:40.941Z,3.70
2019-03-26T04:39:40.925Z,3.61
2019-03-26T04:40:40.905Z,3.69
2019-03-26T04:41:40.872Z,3.68
2019-03-26T04:42:40.853Z,3.73
2019-03-26T04:43:40.832Z,3.65
2019-03-26T04:44:40.810Z,3.73
2019-03-26T04:45:40.785Z,3.65
2019-03-26T04:46:40.759Z,3.70
2019-03-26T04:47:40.740Z,3.80
2019-03-26T04:48:40.722Z,3.75
2019-03-26T04:49:40.691Z,3.75
2019-03-26T04:50:40.668Z,3.83
2019-03-26T04:51:40.654Z,3.78
2019-03-26T04:52:40.623Z,3.75
2019-03-26T04:53:40.597Z,3.69
2019-03-26T04:54:40.632Z,3.62
2019-03-26T04:55:40.557Z,3.72
2019-03-26T04:56:40.535Z,3.66
2019-03-26T04:57:40.510Z,3.65
2019-03-26T04:58:40.490Z,3.73
2019-03-26T04:59:40.467Z,3.79
2019-03-26T05:00:40.450Z,3.65
2019-03-26T05:01:40.420Z,3.70
2019-03-26T05:02:40.397Z,3.68
2019-03-26T05:03:40.380Z,3.69
2019-03-26T05:04:40.351Z,3.69
2019-03-26T05:05:40.332Z,3.76
2019-03-26T05:06:40.305Z,3.84
2019-03-26T05:07:40.283Z,3.87
2019-03-26T05:08:40.260Z,3.83
2019-03-26T05:09:40.243Z,3.78
2019-03-26T05:10:40.216Z,3.94
2019-03-26T05:11:40.195Z,3.91
2019-03-26T05:12:40.176Z,3.87
2019-03-26T05:13:40.147Z,3.90
2019-03-26T05:14:40.120Z,3.83
2019-03-26T05:15:40.102Z,3.80
2019-03-26T05:16:40.082Z,3.96
2019-03-26T05:17:40.057Z,3.96
2019-03-26T05:18:40.033Z,4.06
2019-03-26T05:19:40.008Z,4.06
2019-03-26T05:20:39.986Z,4.09
2019-03-26T05:21:39.963Z,4.18
2019-03-26T05:22:39.937Z,4.26
2019-03-26T05:23:39.917Z,4.32
2019-03-26T05:24:39.899Z,4.30
2019-03-26T05:25:39.874Z,4.29
2019-03-26T05:26:39.850Z,4.47
2019-03-26T05:27:45.419Z,4.51
2019-03-26T05:28:39.804Z,4.47
2019-03-26T05:29:39.783Z,4.52
2019-03-26T05:30:39.759Z,4.66
2019-03-26T05:31:39.736Z,4.78
2019-03-26T05:32:39.712Z,4.84
2019-03-26T05:33:39.692Z,4.97
2019-03-26T05:34:39.668Z,5.00
2019-03-26T05:35:39.651Z,5.07
2019-03-26T05:36:50.598Z,5.07
2019-03-26T05:37:39.598Z,5.06
2019-03-26T05:38:39.579Z,5.06
2019-03-26T05:39:39.558Z,5.03
2019-03-26T05:40:39.532Z,5.00
2019-03-26T05:41:39.506Z,4.97
2019-03-26T05:42:39.490Z,4.99
2019-03-26T05:43:39.468Z,5.02
2019-03-26T05:44:39.448Z,5.04
2019-03-26T05:45:39.417Z,5.03
2019-03-26T05:46:39.396Z,5.04
2019-03-26T05:47:39.374Z,5.02
2019-03-26T05:48:39.351Z,5.09
2019-03-26T05:49:39.327Z,5.12
2019-03-26T05:50:39.307Z,5.07
2019-03-26T05:51:39.280Z,5.03
2019-03-26T05:52:39.273Z,5.00
2019-03-26T05:53:39.248Z,4.99
2019-03-26T05:54:39.212Z,4.88
2019-03-26T05:55:39.194Z,4.97
2019-03-26T05:56:39.178Z,4.99
2019-03-26T05:57:39.150Z,4.89
2019-03-26T05:58:39.131Z,4.94
2019-03-26T05:59:39.108Z,4.94
2019-03-26T06:00:39.083Z,4.82
2019-03-26T06:01:39.056Z,5.02
2019-03-26T06:02:39.048Z,4.94
2019-03-26T06:03:39.023Z,4.89
2019-03-26T06:04:38.989Z,4.99
2019-03-26T06:05:38.965Z,4.99
2019-03-26T06:06:38.949Z,5.02
2019-03-26T06:07:38.924Z,5.03
2019-03-26T06:08:38.901Z,5.03
2019-03-26T06:09:38.877Z,5.02
2019-03-26T06:10:38.857Z,5.03
2019-03-26T06:11:38.881Z,5.00
2019-03-26T06:12:38.811Z,5.00
2019-03-26T06:13:38.788Z,5.00
2019-03-26T06:14:38.766Z,5.06
2019-03-26T06:15:38.740Z,5.03
2019-03-26T06:16:38.901Z,5.07
2019-03-26T06:17:38.697Z,5.13
2019-03-26T06:18:38.678Z,5.12
2019-03-26T06:19:38.657Z,5.06
2019-03-26T06:20:38.634Z,5.09
2019-03-26T06:21:38.603Z,5.12
2019-03-26T06:22:38.585Z,5.09
2019-03-26T06:23:38.556Z,5.10
2019-03-26T06:24:38.543Z,5.20
2019-03-26T06:25:38.515Z,5.18
2019-03-26T06:26:38.499Z,5.15
2019-03-26T06:27:38.477Z,5.18
2019-03-26T06:28:38.448Z,5.12
2019-03-26T06:29:38.427Z,5.17
2019-03-26T06:30:38.407Z,5.20
2019-03-26T06:31:38.381Z,5.30
2019-03-26T06:32:38.359Z,5.42
2019-03-26T06:33:38.338Z,5.39
2019-03-26T06:34:38.316Z,5.36
2019-03-26T06:35:38.289Z,5.45
2019-03-26T06:36:38.274Z,5.54
2019-03-26T06:37:38.255Z,5.57
2019-03-26T06:38:38.229Z,5.71
2019-03-26T06:39:38.211Z,5.72
2019-03-26T06:40:38.182Z,5.78
2019-03-26T06:41:38.154Z,5.75
2019-03-26T06:42:38.134Z,5.90
2019-03-26T06:43:38.113Z,5.83
2019-03-26T06:44:38.090Z,5.89
2019-03-26T06:45:38.075Z,5.91
2019-03-26T06:46:38.045Z,6.08
2019-03-26T06:47:38.026Z,6.17
2019-03-26T06:48:38.001Z,6.30
2019-03-26T06:49:37.984Z,6.27
2019-03-26T06:50:37.955Z,6.33
2019-03-26T06:51:37.935Z,6.37
2019-03-26T06:52:37.915Z,6.33
2019-03-26T06:53:37.891Z,6.34
2019-03-26T06:54:37.873Z,6.40
2019-03-26T06:55:37.851Z,6.40
2019-03-26T06:56:37.824Z,6.38
2019-03-26T06:57:37.801Z,6.41
2019-03-26T06:58:37.789Z,6.36
2019-03-26T06:59:37.764Z,6.46
2019-03-26T07:00:37.738Z,6.46
2019-03-26T07:01:37.715Z,6.41
2019-03-26T07:02:37.694Z,6.49
2019-03-26T07:03:37.670Z,6.52
2019-03-26T07:04:37.646Z,6.51
2019-03-26T07:05:37.626Z,6.41
2019-03-26T07:06:37.605Z,6.49
2019-03-26T07:07:37.586Z,6.55
2019-03-26T07:08:37.559Z,6.40
2019-03-26T07:09:37.543Z,6.40
2019-03-26T07:10:37.515Z,6.41
2019-03-26T07:11:37.497Z,6.38
2019-03-26T07:12:37.476Z,6.41
2019-03-26T07:13:37.451Z,6.41
2019-03-26T07:14:37.435Z,6.41
2019-03-26T07:15:37.409Z,6.44
2019-03-26T07:16:37.389Z,6.51
2019-03-26T07:17:37.367Z,6.43
2019-03-26T07:18:37.339Z,6.51
2019-03-26T07:19:37.321Z,6.54
2019-03-26T07:20:37.300Z,6.58
2019-03-26T07:21:49.137Z,6.52
2019-03-26T07:22:37.256Z,6.55
2019-03-26T07:23:37.232Z,6.46
2019-03-26T07:24:37.210Z,6.54
2019-03-26T07:25:40.297Z,6.61
2019-03-26T07:26:37.165Z,6.66
2019-03-26T07:27:37.148Z,6.59
2019-03-26T07:28:37.133Z,6.73
2019-03-26T07:29:37.102Z,6.70
2019-03-26T07:30:37.089Z,6.73
2019-03-26T07:31:37.063Z,6.77
2019-03-26T07:32:37.048Z,6.74
2019-03-26T07:33:37.023Z,6.73
2019-03-26T07:34:36.991Z,6.61
2019-03-26T07:35:36.975Z,6.67
2019-03-26T07:36:36.948Z,6.59
2019-03-26T07:37:45.004Z,6.61
2019-03-26T07:38:36.917Z,6.61
2019-03-26T07:39:39.117Z,6.73
2019-03-26T07:40:36.867Z,6.73
2019-03-26T07:41:36.840Z,6.73
2019-03-26T07:42:36.823Z,6.94
2019-03-26T07:43:36.800Z,7.42
2019-03-26T07:44:36.784Z,8.20
2019-03-26T07:45:36.766Z,9.20
2019-03-26T07:46:36.736Z,9.91
2019-03-26T07:47:36.720Z,10.60
2019-03-26T07:48:36.695Z,11.21
2019-03-26T07:49:36.670Z,11.88
2019-03-26T07:50:36.652Z,12.45
2019-03-26T07:51:36.630Z,12.64
2019-03-26T07:52:36.612Z,13.04
2019-03-26T07:53:36.587Z,13.17
2019-03-26T07:54:36.568Z,13.38
2019-03-26T07:55:36.548Z,13.81
2019-03-26T07:56:36.529Z,13.42
2019-03-26T07:57:36.508Z,13.73
2019-03-26T07:58:36.486Z,13.64
2019-03-26T07:59:36.464Z,13.85
2019-03-26T08:00:36.454Z,14.00
2019-03-26T08:01:36.428Z,13.49
2019-03-26T08:02:36.417Z,13.22
2019-03-26T08:03:36.391Z,12.70
2019-03-26T08:04:36.378Z,12.10
2019-03-26T08:05:36.356Z,11.61
2019-03-26T08:06:36.336Z,11.32
2019-03-26T08:07:36.367Z,11.25
2019-03-26T08:08:36.304Z,11.19
2019-03-26T08:09:36.417Z,11.06
2019-03-26T08:10:36.277Z,11.00
2019-03-26T08:11:36.258Z,10.82
2019-03-26T08:12:36.238Z,10.41
2019-03-26T08:13:36.230Z,10.42
2019-03-26T08:14:36.224Z,10.91
2019-03-26T08:15:36.194Z,11.35
2019-03-26T08:16:36.167Z,11.17
2019-03-26T08:17:36.167Z,10.91
2019-03-26T08:18:36.135Z,10.78
2019-03-26T08:19:36.110Z,10.70
2019-03-26T08:20:36.092Z,10.66
2019-03-26T08:21:36.078Z,10.34
2019-03-26T08:22:36.065Z,10.22
2019-03-26T08:23:38.310Z,10.23
2019-03-26T08:24:36.036Z,10.12
2019-03-26T08:25:36.014Z,10.34
2019-03-26T08:26:35.992Z,10.79
2019-03-26T08:27:35.976Z,10.92
2019-03-26T08:28:35.960Z,10.96
2019-03-26T08:29:35.942Z,10.85
2019-03-26T08:30:35.925Z,10.82
2019-03-26T08:31:35.906Z,10.94
2019-03-26T08:32:37.222Z,10.88
2019-03-26T08:33:35.863Z,10.74
2019-03-26T08:34:35.851Z,10.60
2019-03-26T08:35:35.838Z,10.44
2019-03-26T08:36:35.815Z,10.33
2019-03-26T08:37:35.799Z,10.26
2019-03-26T08:38:35.781Z,10.25
2019-03-26T08:39:35.766Z,10.20
2019-03-26T08:40:35.748Z,10.30
2019-03-26T08:41:35.728Z,10.86
2019-03-26T08:42:35.712Z,10.82
2019-03-26T08:43:35.696Z,10.78
2019-03-26T08:44:35.676Z,10.64
2019-03-26T08:45:35.664Z,10.59
2019-03-26T08:46:35.642Z,11.18
2019-03-26T08:47:35.624Z,11.27
2019-03-26T08:48:35.610Z,11.40
2019-03-26T08:49:35.590Z,11.43
2019-03-26T08:50:35.574Z,11.43
2019-03-26T08:51:35.558Z,11.32
2019-03-26T08:52:35.541Z,11.21
2019-03-26T08:53:35.529Z,11.10
2019-03-26T08:54:35.502Z,11.06
2019-03-26T08:55:35.486Z,10.82
2019-03-26T08:56:35.467Z,10.74
2019-03-26T08:57:35.448Z,10.60
2019-03-26T08:58:35.433Z,10.48
2019-03-26T08:59:35.414Z,10.36
2019-03-26T09:00:35.396Z,10.25
2019-03-26T09:01:35.383Z,10.29
2019-03-26T09:02:35.431Z,10.12
2019-03-26T09:03:35.342Z,9.99
2019-03-26T09:04:35.334Z,9.99
2019-03-26T09:05:35.313Z,9.79
2019-03-26T09:06:35.301Z,9.79
2019-03-26T09:07:35.275Z,9.81
2019-03-26T09:08:35.257Z,9.79
2019-03-26T09:09:35.241Z,9.68
2019-03-26T09:10:35.220Z,9.65
2019-03-26T09:11:35.202Z,9.56
2019-03-26T09:12:35.184Z,9.48
2019-03-26T09:13:35.169Z,9.50
2019-03-26T09:14:35.148Z,9.39
2019-03-26T09:15:35.128Z,9.35
2019-03-26T09:16:35.112Z,9.43
2019-03-26T09:17:35.092Z,9.43
2019-03-26T09:18:35.075Z,9.35
2019-03-26T09:19:35.063Z,9.39
2019-03-26T09:20:35.048Z,9.36
2019-03-26T09:21:35.021Z,9.42
2019-03-26T09:22:35.011Z,9.43
2019-03-26T09:23:34.985Z,9.43
2019-03-26T09:24:34.965Z,9.51
2019-03-26T09:25:34.944Z,9.57
2019-03-26T09:26:34.926Z,9.56
2019-03-26T09:27:34.914Z,9.56
2019-03-26T09:28:34.892Z,9.48
2019-03-26T09:29:34.878Z,9.56
2019-03-26T09:30:34.862Z,9.53
2019-03-26T09:31:34.834Z,9.66
2019-03-26T09:32:34.815Z,9.65
2019-03-26T09:33:34.794Z,9.66
2019-03-26T09:34:34.776Z,9.76
2019-03-26T09:35:34.767Z,9.94
2019-03-26T09:36:34.744Z,10.08
2019-03-26T09:37:34.721Z,10.17
2019-03-26T09:38:39.077Z,10.26
2019-03-26T09:39:34.689Z,10.92
2019-03-26T09:40:34.667Z,11.64
2019-03-26T09:41:34.655Z,12.07
2019-03-26T09:42:34.627Z,12.52
2019-03-26T09:43:34.612Z,12.89
2019-03-26T09:44:34.599Z,13.36
2019-03-26T09:45:34.579Z,13.49
2019-03-26T09:46:34.551Z,13.49
2019-03-26T09:47:34.542Z,13.23
2019-03-26T09:48:34.519Z,13.15
2019-03-26T09:49:34.509Z,12.87
2019-03-26T09:50:34.489Z,12.62
2019-03-26T09:51:34.473Z,11.83
2019-03-26T09:52:34.451Z,11.51
2019-03-26T09:53:34.437Z,11.19
2019-03-26T09:54:34.416Z,11.07
2019-03-26T09:55:34.394Z,11.03
2019-03-26T09:56:34.379Z,10.84
2019-03-26T09:57:34.360Z,10.73
2019-03-26T09:58:34.347Z,10.63
2019-03-26T09:59:34.327Z,10.71
2019-03-26T10:00:34.449Z,10.66
2019-03-26T10:01:34.296Z,10.67
2019-03-26T10:02:34.275Z,10.59
2019-03-26T10:03:34.267Z,10.53
2019-03-26T10:04:34.243Z,10.44
2019-03-26T10:05:34.225Z,10.30
2019-03-26T10:06:34.209Z,10.22
2019-03-26T10:07:34.188Z,10.32
2019-03-26T10:08:34.173Z,10.22
2019-03-26T10:09:34.157Z,10.29
2019-03-26T10:10:34.391Z,10.53
2019-03-26T10:11:34.121Z,11.00
2019-03-26T10:12:34.099Z,11.18
2019-03-26T10:13:36.393Z,11.64
2019-03-26T10:14:34.071Z,11.69
2019-03-26T10:15:34.053Z,11.64
2019-03-26T10:16:34.037Z,11.73
2019-03-26T10:17:34.014Z,11.76
2019-03-26T10:18:33.996Z,11.73
2019-03-26T10:19:33.985Z,11.64
2019-03-26T10:20:33.967Z,11.46
2019-03-26T10:21:33.944Z,11.21
2019-03-26T10:22:33.934Z,11.06
2019-03-26T10:23:33.914Z,10.97
2019-03-26T10:24:33.898Z,10.85
2019-03-26T10:25:33.887Z,10.55
2019-03-26T10:26:33.874Z,10.26
2019-03-26T10:27:35.189Z,10.01
2019-03-26T10:28:33.833Z,9.83
2019-03-26T10:29:33.815Z,9.65
2019-03-26T10:30:33.807Z,9.61
2019-03-26T10:31:33.781Z,9.61
2019-03-26T10:32:33.761Z,9.61
2019-03-26T10:33:33.759Z,9.54
2019-03-26T10:34:36.467Z,9.50
2019-03-26T10:35:33.710Z,9.46
2019-03-26T10:36:33.692Z,9.43
2019-03-26T10:37:33.678Z,9.40
2019-03-26T10:38:33.660Z,9.48
2019-03-26T10:39:33.647Z,9.48
2019-03-26T10:40:33.622Z,9.43
2019-03-26T10:41:33.605Z,9.50
2019-03-26T10:42:33.585Z,9.36
2019-03-26T10:43:33.567Z,9.61
2019-03-26T10:44:33.563Z,9.54
2019-03-26T10:45:33.533Z,9.47
2019-03-26T10:46:33.514Z,9.43
2019-03-26T10:47:33.498Z,9.43
2019-03-26T10:48:33.478Z,9.38
2019-03-26T10:49:33.453Z,9.38
2019-03-26T10:50:33.440Z,9.50
2019-03-26T10:51:33.421Z,9.57
2019-03-26T10:52:34.359Z,9.66
2019-03-26T10:53:33.382Z,9.65
2019-03-26T10:54:33.366Z,9.68
2019-03-26T10:55:33.344Z,9.68
2019-03-26T10:56:33.341Z,9.65
2019-03-26T10:57:33.312Z,9.66
2019-03-26T10:58:33.292Z,9.71
2019-03-26T10:59:33.273Z,9.75
2019-03-26T11:00:33.257Z,9.75
2019-03-26T11:01:33.240Z,9.78
2019-03-26T11:02:33.218Z,9.66
2019-03-26T11:03:33.197Z,9.58
2019-03-26T11:04:33.179Z,9.57
2019-03-26T11:05:33.154Z,9.43
2019-03-26T11:06:33.138Z,9.40
2019-03-26T11:07:33.125Z,9.38
2019-03-26T11:08:33.106Z,9.33
2019-03-26T11:09:33.081Z,9.39
2019-03-26T11:10:33.074Z,9.43
2019-03-26T11:11:33.046Z,9.35
2019-03-26T11:12:33.026Z,9.32
2019-03-26T11:13:33.005Z,9.39
2019-03-26T11:14:32.991Z,9.42
2019-03-26T11:15:32.970Z,9.33
2019-03-26T11:16:32.951Z,9.38
2019-03-26T11:17:32.939Z,9.31
2019-03-26T11:18:32.912Z,9.36
2019-03-26T11:19:32.894Z,9.38
2019-03-26T11:20:32.933Z,9.42
2019-03-26T11:21:32.859Z,9.40
2019-03-26T11:22:32.847Z,9.46
2019-03-26T11:23:32.813Z,9.48
2019-03-26T11:24:32.797Z,9.53
2019-03-26T11:25:32.777Z,9.66
2019-03-26T11:26:32.765Z,9.72
2019-03-26T11:27:32.737Z,9.87
2019-03-26T11:28:32.723Z,9.90
2019-03-26T11:29:32.700Z,9.89
2019-03-26T11:30:32.683Z,10.01
2019-03-26T11:31:32.665Z,9.86
2019-03-26T11:32:32.651Z,9.99
2019-03-26T11:33:32.628Z,10.01
2019-03-26T11:34:32.604Z,9.89
2019-03-26T11:35:32.584Z,9.81
2019-03-26T11:36:32.568Z,9.78
2019-03-26T11:37:32.545Z,9.66
2019-03-26T11:38:32.532Z,9.71
2019-03-26T11:39:33.206Z,9.61
2019-03-26T11:40:32.495Z,9.66
2019-03-26T11:41:32.472Z,9.58
2019-03-26T11:42:32.454Z,9.48
2019-03-26T11:43:32.439Z,9.47
2019-03-26T11:44:32.418Z,9.46
2019-03-26T11:45:32.398Z,9.48
2019-03-26T11:46:32.380Z,9.40
2019-03-26T11:47:32.358Z,9.36
2019-03-26T11:48:32.337Z,9.38
2019-03-26T11:49:32.321Z,9.42
2019-03-26T11:50:32.306Z,9.38
2019-03-26T11:51:32.287Z,9.40
2019-03-26T11:52:32.263Z,9.36
2019-03-26T11:53:32.245Z,9.32
2019-03-26T11:54:32.223Z,9.31
2019-03-26T11:55:32.203Z,9.35
2019-03-26T11:56:32.190Z,9.31
2019-03-26T11:57:32.164Z,9.24
2019-03-26T11:58:32.165Z,9.26
2019-03-26T11:59:32.127Z,9.21
2019-03-26T12:00:32.105Z,9.23
2019-03-26T12:01:32.084Z,9.13
2019-03-26T12:02:32.100Z,9.04
2019-03-26T12:03:32.046Z,9.01
2019-03-26T12:04:32.028Z,8.87
2019-03-26T12:05:32.016Z,8.81
2019-03-26T12:06:31.993Z,8.37
2019-03-26T12:07:31.966Z,8.25
2019-03-26T12:08:31.949Z,8.23
2019-03-26T12:09:45.177Z,8.18
2019-03-26T12:10:31.907Z,8.08
2019-03-26T12:11:31.887Z,8.12
2019-03-26T12:12:31.865Z,8.23
2019-03-26T12:13:31.848Z,8.30
2019-03-26T12:14:31.837Z,8.52
2019-03-26T12:15:31.808Z,8.96
2019-03-26T12:16:31.787Z,9.47
2019-03-26T12:17:31.763Z,10.30
2019-03-26T12:18:31.749Z,10.88
2019-03-26T12:19:31.732Z,11.17
2019-03-26T12:20:31.717Z,10.84
2019-03-26T12:21:31.691Z,10.64
2019-03-26T12:22:31.669Z,10.78
2019-03-26T12:23:31.653Z,11.35
2019-03-26T12:24:31.649Z,11.35
2019-03-26T12:25:31.613Z,11.28
2019-03-26T12:26:31.603Z,10.94
2019-03-26T12:27:31.583Z,10.82
2019-03-26T12:28:31.564Z,10.63
2019-03-26T12:29:31.547Z,10.47
2019-03-26T12:30:31.531Z,10.38
2019-03-26T12:31:31.513Z,10.33
2019-03-26T12:32:31.493Z,10.15
2019-03-26T12:33:31.480Z,9.91
2019-03-26T12:34:31.457Z,9.84
2019-03-26T12:35:31.443Z,9.68
2019-03-26T12:36:39.996Z,9.69
2019-03-26T12:37:31.408Z,9.69
2019-03-26T12:38:31.385Z,9.60
2019-03-26T12:39:31.367Z,9.50
2019-03-26T12:40:31.354Z,9.66
2019-03-26T12:41:31.332Z,10.34
2019-03-26T12:42:31.322Z,10.91
2019-03-26T12:43:31.300Z,10.86
2019-03-26T12:44:31.283Z,11.03
2019-03-26T12:45:31.259Z,11.04
2019-03-26T12:46:31.248Z,11.78
2019-03-26T12:47:31.247Z,12.19
2019-03-26T12:48:31.209Z,12.77
2019-03-26T12:49:31.195Z,13.22
2019-03-26T12:50:32.253Z,13.85
2019-03-26T12:51:31.156Z,13.99
2019-03-26T12:52:31.143Z,13.69
2019-03-26T12:53:31.123Z,13.42
2019-03-26T12:54:31.113Z,13.20
2019-03-26T12:55:31.087Z,13.03
2019-03-26T12:56:31.075Z,13.17
2019-03-26T12:57:31.055Z,12.82
2019-03-26T12:58:33.646Z,12.78
2019-03-26T12:59:31.024Z,12.56
2019-03-26T13:00:31.010Z,12.20
2019-03-26T13:01:30.987Z,11.98
2019-03-26T13:02:30.973Z,11.95
2019-03-26T13:03:30.955Z,12.04
2019-03-26T13:04:30.939Z,12.02
2019-03-26T13:05:30.928Z,12.20
2019-03-26T13:06:30.907Z,12.19
2019-03-26T13:07:30.890Z,12.34
2019-03-26T13:08:30.872Z,12.32
2019-03-26T13:09:30.860Z,12.34
2019-03-26T13:10:30.842Z,12.35
2019-03-26T13:11:30.828Z,12.42
2019-03-26T13:12:30.815Z,12.41